createdAt,value
2023-12-19T00:02:30.893Z,-1.81
2023-12-19T00:05:33.840Z,-1.74
2023-12-19T00:08:37.604Z,-1.67
2023-12-19T00:11:40.284Z,-1.67
2023-12-19T00:14:44.908Z,-1.50
2023-12-19T00:17:49.665Z,-1.53
2023-12-19T00:20:53.987Z,-1.55
2023-12-19T00:23:56.806Z,-1.49
2023-12-19T00:26:59.374Z,-1.59
2023-12-19T00:30:02.219Z,-1.72
2023-12-19T00:33:07.142Z,-1.80
2023-12-19T00:36:10.167Z,-1.88
2023-12-19T00:39:18.138Z,-1.86
2023-12-19T00:42:22.059Z,-1.93
2023-12-19T00:45:27.893Z,-1.99
2023-12-19T00:48:32.848Z,-2.17
2023-12-19T00:51:35.481Z,-1.91
2023-12-19T00:54:38.193Z,-1.79
2023-12-19T00:57:40.607Z,-1.91
2023-12-19T01:00:43.552Z,-2.08
2023-12-19T01:03:46.235Z,-2.10
2023-12-19T01:06:50.347Z,-2.03
2023-12-19T01:09:53.940Z,-2.14
2023-12-19T01:12:56.958Z,-2.09
2023-12-19T01:15:59.499Z,-2.10
2023-12-19T01:19:03.484Z,-2.18
2023-12-19T01:22:05.973Z,-2.12
2023-12-19T01:25:08.839Z,-2.06
2023-12-19T01:28:13.089Z,-2.17
2023-12-19T01:31:16.449Z,-2.06
2023-12-19T01:34:19.225Z,-1.93
2023-12-19T01:37:22.147Z,-1.90
2023-12-19T01:40:24.513Z,-1.90
2023-12-19T01:43:27.216Z,-1.93
2023-12-19T01:46:29.611Z,-2.01
2023-12-19T01:49:32.941Z,-2.04
2023-12-19T01:52:39.409Z,-2.33
2023-12-19T01:55:42.454Z,-2.28
2023-12-19T01:58:45.869Z,-2.29
2023-12-19T02:01:48.995Z,-2.39
2023-12-19T02:04:52.102Z,-2.35
2023-12-19T02:07:54.831Z,-2.13
2023-12-19T02:10:57.511Z,-2.11
2023-12-19T02:14:00.484Z,-2.15
2023-12-19T02:17:03.266Z,-1.86
2023-12-19T02:20:07.303Z,-1.83
2023-12-19T02:23:11.527Z,-1.67
2023-12-19T02:26:14.351Z,-1.95
2023-12-19T02:29:16.680Z,-1.85
2023-12-19T02:32:19.579Z,-1.68
2023-12-19T02:35:22.173Z,-1.90
2023-12-19T02:38:24.776Z,-1.86
2023-12-19T02:41:27.123Z,-1.69
2023-12-19T02:44:29.811Z,-1.74
2023-12-19T02:47:32.298Z,-1.67
2023-12-19T02:50:35.007Z,-1.60
2023-12-19T02:53:37.450Z,-1.57
2023-12-19T02:56:40.357Z,-1.79
2023-12-19T02:59:43.003Z,-1.69
2023-12-19T03:02:48.642Z,-1.69
2023-12-19T03:05:50.993Z,-1.76
2023-12-19T03:08:58.504Z,-1.92
2023-12-19T03:12:04.626Z,-2.14
2023-12-19T03:15:07.706Z,-2.13
2023-12-19T03:18:10.439Z,-2.08
2023-12-19T03:21:13.843Z,-1.86
2023-12-19T03:24:16.415Z,-1.95
2023-12-19T03:27:19.039Z,-1.84
2023-12-19T03:30:21.530Z,-1.88
2023-12-19T03:33:24.580Z,-2.02
2023-12-19T03:36:27.076Z,-1.94
2023-12-19T03:39:29.935Z,-1.98
2023-12-19T03:42:39.131Z,-2.09
2023-12-19T03:45:43.118Z,-1.82
2023-12-19T03:48:47.038Z,-1.77
2023-12-19T03:51:51.113Z,-1.82
2023-12-19T03:54:53.629Z,-1.88
2023-12-19T03:57:56.307Z,-2.12
2023-12-19T04:01:01.742Z,-1.90
2023-12-19T04:04:04.966Z,-1.81
2023-12-19T04:07:07.510Z,-1.73
2023-12-19T04:10:11.117Z,-1.84
2023-12-19T04:13:13.916Z,-1.67
2023-12-19T04:16:16.657Z,-1.70
2023-12-19T04:19:20.614Z,-1.76
2023-12-19T04:22:23.695Z,-1.70
2023-12-19T04:25:26.139Z,-1.73
2023-12-19T04:28:29.199Z,-1.77
2023-12-19T04:31:32.264Z,-1.88
2023-12-19T04:34:35.303Z,-1.64
2023-12-19T04:37:37.830Z,-1.71
2023-12-19T04:40:40.607Z,-1.74
2023-12-19T04:43:43.034Z,-1.88
2023-12-19T04:46:45.808Z,-1.86
2023-12-19T04:49:48.534Z,-1.75
2023-12-19T04:52:51.624Z,-1.76
2023-12-19T04:55:53.929Z,-1.49
2023-12-19T04:58:56.765Z,-1.44
2023-12-19T05:01:59.316Z,-1.48
2023-12-19T05:05:02.613Z,-1.65
2023-12-19T05:08:05.452Z,-1.65
2023-12-19T05:11:11.382Z,-1.74
2023-12-19T05:14:16.087Z,-1.70
2023-12-19T05:17:19.005Z,-2.06
2023-12-19T05:20:23.292Z,-2.04
2023-12-19T05:23:26.193Z,-1.74
2023-12-19T05:26:28.867Z,-1.80
2023-12-19T05:29:34.934Z,-1.85
2023-12-19T05:32:37.734Z,-1.79
2023-12-19T05:35:41.094Z,-1.75
2023-12-19T05:38:43.999Z,-1.81
2023-12-19T05:41:46.986Z,-2.04
2023-12-19T05:44:49.409Z,-1.90
2023-12-19T05:47:52.663Z,-2.03
2023-12-19T05:50:55.189Z,-2.00
2023-12-19T05:54:00.217Z,-1.78
2023-12-19T05:57:03.524Z,-1.73
2023-12-19T06:00:09.301Z,-1.82
2023-12-19T06:03:13.406Z,-1.63
2023-12-19T06:06:16.308Z,-1.85
2023-12-19T06:09:19.022Z,-2.04
2023-12-19T06:12:22.100Z,-1.98
2023-12-19T06:15:25.135Z,-1.83
2023-12-19T06:18:30.759Z,-1.85
2023-12-19T06:21:33.744Z,-1.90
2023-12-19T06:24:36.772Z,-1.98
2023-12-19T06:27:41.319Z,-1.88
2023-12-19T06:30:43.878Z,-1.91
2023-12-19T06:33:47.013Z,-2.00
2023-12-19T06:36:49.646Z,-1.74
2023-12-19T06:39:52.349Z,-1.90
2023-12-19T06:42:55.405Z,-1.81
2023-12-19T06:45:58.361Z,-2.03
2023-12-19T06:49:01.036Z,-1.73
2023-12-19T06:52:04.016Z,-1.95
2023-12-19T06:55:08.793Z,-2.02
2023-12-19T06:58:12.489Z,-1.70
2023-12-19T07:01:15.631Z,-1.67
2023-12-19T07:04:18.556Z,-1.93
2023-12-19T07:07:21.081Z,-1.79
2023-12-19T07:10:26.852Z,-1.84
2023-12-19T07:13:29.488Z,-1.74
2023-12-19T07:16:35.384Z,-1.67
2023-12-19T07:19:38.378Z,-1.73
2023-12-19T07:22:42.350Z,-1.67
2023-12-19T07:25:44.966Z,-1.57
2023-12-19T07:28:47.896Z,-1.98
2023-12-19T07:31:54.880Z,-2.03
2023-12-19T07:34:57.669Z,-1.65
2023-12-19T07:38:01.021Z,-1.47
2023-12-19T07:41:04.064Z,-1.70
2023-12-19T07:44:10.810Z,-1.70
2023-12-19T07:47:13.965Z,-1.63
2023-12-19T07:50:18.557Z,-1.69
2023-12-19T07:53:21.358Z,-1.73
2023-12-19T07:56:26.858Z,-1.57
2023-12-19T07:59:29.613Z,-1.59
2023-12-19T08:02:33.619Z,-1.53
2023-12-19T08:05:36.456Z,-1.27
2023-12-19T08:08:39.009Z,-1.62
2023-12-19T08:11:42.065Z,-1.56
2023-12-19T08:14:44.544Z,-1.68
2023-12-19T08:17:48.499Z,-1.21
2023-12-19T08:20:51.248Z,-1.22
2023-12-19T08:23:54.017Z,-1.49
2023-12-19T08:26:56.498Z,-1.35
2023-12-19T08:29:59.624Z,-1.26
2023-12-19T08:33:04.175Z,-1.04
2023-12-19T08:36:07.462Z,-1.24
2023-12-19T08:39:11.435Z,-1.24
2023-12-19T08:42:14.478Z,-1.18
2023-12-19T08:45:20.912Z,-1.07
2023-12-19T08:48:24.112Z,-1.04
2023-12-19T08:51:27.260Z,-1.20
2023-12-19T08:54:29.997Z,-1.17
2023-12-19T08:57:32.906Z,-1.41
2023-12-19T09:00:36.650Z,-0.87
2023-12-19T09:03:39.515Z,-1.09
2023-12-19T09:06:42.360Z,-0.91
2023-12-19T09:09:44.860Z,-1.02
2023-12-19T09:12:48.112Z,-0.92
2023-12-19T09:15:50.838Z,-0.60
2023-12-19T09:18:53.694Z,-0.46
2023-12-19T09:21:56.382Z,-0.78
2023-12-19T09:24:59.229Z,-1.00
2023-12-19T09:28:01.917Z,-0.88
2023-12-19T09:31:08.776Z,-1.21
2023-12-19T09:34:15.125Z,-0.96
2023-12-19T09:37:18.530Z,-0.75
2023-12-19T09:40:28.332Z,-1.06
2023-12-19T09:43:34.790Z,-0.61
2023-12-19T09:46:37.647Z,-0.61
2023-12-19T09:49:43.088Z,0.68
2023-12-19T09:52:48.407Z,-0.10
2023-12-19T09:55:51.761Z,-0.15
2023-12-19T09:58:56.017Z,-0.30
2023-12-19T10:01:58.838Z,-0.50
2023-12-19T10:05:02.126Z,-0.41
2023-12-19T10:08:05.405Z,-0.62
2023-12-19T10:11:09.119Z,-0.74
2023-12-19T10:14:18.935Z,-0.75
2023-12-19T10:17:23.625Z,-0.84
2023-12-19T10:20:26.405Z,-0.98
2023-12-19T10:23:29.215Z,-0.93
2023-12-19T10:26:32.025Z,-0.59
2023-12-19T10:29:38.129Z,-0.71
2023-12-19T10:32:42.139Z,-0.18
2023-12-19T10:35:46.453Z,-0.44
2023-12-19T10:38:50.132Z,-0.64
2023-12-19T10:42:05.265Z,-0.50
2023-12-19T10:45:08.677Z,-0.72
2023-12-19T10:48:11.520Z,-0.65
2023-12-19T10:51:22.622Z,-0.40
2023-12-19T10:54:26.726Z,-0.40
2023-12-19T10:57:33.547Z,-0.21
2023-12-19T11:00:39.324Z,-0.35
2023-12-19T11:03:50.288Z,-0.06
2023-12-19T11:07:00.352Z,-0.09
2023-12-19T11:10:07.474Z,-0.22
2023-12-19T11:13:11.787Z,0.01
2023-12-19T11:16:23.414Z,-0.15
2023-12-19T11:19:30.845Z,0.02
2023-12-19T11:22:58.289Z,0.01
2023-12-19T11:26:30.661Z,0.05
2023-12-19T11:29:59.241Z,0.56
2023-12-19T11:33:02.741Z,-0.07
2023-12-19T11:36:15.403Z,0.27
2023-12-19T11:39:26.109Z,0.31
2023-12-19T11:42:41.582Z,0.42
2023-12-19T11:45:44.985Z,0.10
2023-12-19T11:48:51.873Z,0.38
2023-12-19T11:51:56.551Z,0.28
2023-12-19T11:55:00.013Z,0.24
2023-12-19T11:58:13.494Z,0.06
2023-12-19T12:01:16.786Z,-0.01
2023-12-19T12:04:20.749Z,0.46
2023-12-19T12:07:24.864Z,-0.04
2023-12-19T12:10:28.323Z,0.23
2023-12-19T12:13:32.065Z,-0.03
2023-12-19T12:16:38.850Z,-0.05
2023-12-19T12:19:41.681Z,0.05
2023-12-19T12:22:45.089Z,-0.10
2023-12-19T12:25:59.743Z,0.15
2023-12-19T12:29:02.422Z,0.49
2023-12-19T12:32:05.448Z,0.41
2023-12-19T12:35:32.465Z,0.35
2023-12-19T12:38:34.971Z,0.53
2023-12-19T12:41:39.157Z,0.40
2023-12-19T12:44:44.387Z,0.18
2023-12-19T12:47:48.516Z,0.24
2023-12-19T12:50:55.107Z,0.21
2023-12-19T12:54:04.006Z,0.03
2023-12-19T12:57:13.308Z,0.21
2023-12-19T13:00:24.419Z,-0.03
2023-12-19T13:03:30.883Z,-0.22
2023-12-19T13:06:43.029Z,0.11
2023-12-19T13:09:46.183Z,0.21
2023-12-19T13:12:48.970Z,-0.15
2023-12-19T13:15:54.876Z,0.10
2023-12-19T13:18:57.674Z,0.19
2023-12-19T13:22:00.314Z,0.23
2023-12-19T13:25:10.713Z,0.40
2023-12-19T13:28:13.334Z,0.28
2023-12-19T13:31:16.771Z,0.12
2023-12-19T13:34:19.812Z,0.07
2023-12-19T13:37:22.801Z,-0.06
2023-12-19T13:40:25.544Z,0.25
2023-12-19T13:43:29.581Z,0.15
2023-12-19T13:46:32.170Z,0.06
2023-12-19T13:49:35.459Z,0.15
2023-12-19T13:52:39.476Z,0.15
2023-12-19T13:55:42.455Z,0.27
2023-12-19T13:58:44.816Z,-0.01
2023-12-19T14:01:47.961Z,-0.26
2023-12-19T14:04:51.070Z,-0.12
2023-12-19T14:07:55.892Z,-0.21
2023-12-19T14:10:58.834Z,0.11
2023-12-19T14:14:01.374Z,0.15
2023-12-19T14:17:06.980Z,0.18
2023-12-19T14:20:10.784Z,0.18
2023-12-19T14:23:14.088Z,0.20
2023-12-19T14:26:16.603Z,0.18
2023-12-19T14:29:19.294Z,0.22
2023-12-19T14:32:21.684Z,0.08
2023-12-19T14:35:24.822Z,0.12
2023-12-19T14:38:27.297Z,0.01
2023-12-19T14:41:30.319Z,-0.15
2023-12-19T14:44:32.978Z,-0.08
2023-12-19T14:47:36.263Z,-0.18
2023-12-19T14:50:39.169Z,-0.09
2023-12-19T14:53:43.508Z,-0.12
2023-12-19T14:56:46.705Z,-0.28
2023-12-19T14:59:49.989Z,-0.22
2023-12-19T15:02:52.381Z,-0.14
2023-12-19T15:05:55.943Z,-0.33
2023-12-19T15:08:58.451Z,-0.10
2023-12-19T15:12:01.431Z,-0.53
2023-12-19T15:15:04.368Z,-0.31
2023-12-19T15:18:07.615Z,-0.27
2023-12-19T15:21:13.614Z,-0.31
2023-12-19T15:24:16.666Z,-0.36
2023-12-19T15:27:21.046Z,-0.43
2023-12-19T15:30:23.903Z,-0.27
2023-12-19T15:33:26.433Z,-0.59
2023-12-19T15:36:29.466Z,-0.56
2023-12-19T15:39:32.946Z,-0.59
2023-12-19T15:42:35.831Z,-0.70
2023-12-19T15:45:39.145Z,-0.75
2023-12-19T15:48:41.947Z,-0.55
2023-12-19T15:51:45.097Z,-0.61
2023-12-19T15:54:48.006Z,-0.50
2023-12-19T15:57:54.680Z,-0.58
2023-12-19T16:00:57.613Z,-0.58
2023-12-19T16:04:01.038Z,-0.69
2023-12-19T16:07:03.911Z,-0.74
2023-12-19T16:10:07.213Z,-0.78
2023-12-19T16:13:09.996Z,-0.64
2023-12-19T16:16:15.910Z,-1.02
2023-12-19T16:19:21.443Z,-0.95
2023-12-19T16:22:24.334Z,-0.90
2023-12-19T16:25:27.047Z,-0.90
2023-12-19T16:28:30.270Z,-0.78
2023-12-19T16:31:33.761Z,-0.71
2023-12-19T16:34:36.795Z,-0.76
2023-12-19T16:37:39.815Z,-0.73
2023-12-19T16:40:51.862Z,-0.70
2023-12-19T16:43:55.412Z,-0.57
2023-12-19T16:46:58.265Z,-0.39
2023-12-19T16:50:02.844Z,-0.58
2023-12-19T16:53:12.265Z,-0.63
2023-12-19T16:56:20.307Z,-0.88
2023-12-19T16:59:23.775Z,-0.78
2023-12-19T17:02:26.862Z,-0.76
2023-12-19T17:05:30.531Z,-0.90
2023-12-19T17:08:34.706Z,-0.80
2023-12-19T17:11:37.630Z,-0.79
2023-12-19T17:14:42.832Z,-0.86
2023-12-19T17:17:46.148Z,-1.05
2023-12-19T17:20:48.582Z,-0.64
2023-12-19T17:23:54.028Z,-0.85
2023-12-19T17:26:57.489Z,-0.75
2023-12-19T17:30:01.612Z,-0.85
2023-12-19T17:33:05.166Z,-0.83
2023-12-19T17:36:12.024Z,-0.71
2023-12-19T17:39:15.727Z,-0.80
2023-12-19T17:42:19.163Z,-0.77
2023-12-19T17:45:21.874Z,-0.70
2023-12-19T17:48:27.871Z,-0.53
2023-12-19T17:51:30.909Z,-0.83
2023-12-19T17:54:34.073Z,-0.78
2023-12-19T17:57:36.816Z,-0.88
2023-12-19T18:00:39.812Z,-0.73
2023-12-19T18:03:42.718Z,-0.71
2023-12-19T18:06:45.961Z,-0.74
2023-12-19T18:09:49.562Z,-0.71
2023-12-19T18:12:54.964Z,-0.54
2023-12-19T18:15:58.274Z,-0.53
2023-12-19T18:19:01.657Z,-0.55
2023-12-19T18:22:07.592Z,-0.92
2023-12-19T18:25:10.367Z,-0.68
2023-12-19T18:28:13.262Z,-0.82
2023-12-19T18:31:15.900Z,-0.72
2023-12-19T18:34:19.188Z,-0.75
2023-12-19T18:37:22.501Z,-0.94
2023-12-19T18:40:25.627Z,-0.83
2023-12-19T18:43:28.450Z,-0.97
2023-12-19T18:46:31.357Z,-0.81
2023-12-19T18:49:34.223Z,-0.94
2023-12-19T18:52:37.055Z,-0.90
2023-12-19T18:55:39.562Z,-1.28
2023-12-19T18:58:44.283Z,-1.04
2023-12-19T19:01:47.675Z,-0.86
2023-12-19T19:04:51.310Z,-0.92
2023-12-19T19:07:55.226Z,-1.15
2023-12-19T19:10:58.236Z,-1.07
2023-12-19T19:14:03.308Z,-1.19
2023-12-19T19:17:11.301Z,-1.01
2023-12-19T19:20:43.864Z,-0.85
2023-12-19T19:23:47.813Z,-1.02
2023-12-19T19:26:51.062Z,-0.92
2023-12-19T19:29:54.401Z,-1.07
2023-12-19T19:32:58.186Z,-1.07
2023-12-19T19:36:01.618Z,-1.10
2023-12-19T19:39:04.977Z,-1.01
2023-12-19T19:42:07.984Z,-1.32
2023-12-19T19:45:10.999Z,-1.07
2023-12-19T19:48:14.161Z,-0.86
2023-12-19T19:51:17.212Z,-0.96
2023-12-19T19:54:23.315Z,-0.94
2023-12-19T19:57:26.708Z,-1.06
2023-12-19T20:00:29.719Z,-0.89
2023-12-19T20:03:33.699Z,-0.80
2023-12-19T20:06:36.797Z,-0.87
2023-12-19T20:09:40.106Z,-1.06
2023-12-19T20:12:44.285Z,-1.06
2023-12-19T20:15:47.392Z,-1.15
2023-12-19T20:18:51.341Z,-0.97
2023-12-19T20:21:54.343Z,-1.14
2023-12-19T20:24:57.206Z,-1.14
2023-12-19T20:28:00.663Z,-1.17
2023-12-19T20:31:04.433Z,-0.95
2023-12-19T20:34:08.911Z,-1.04
2023-12-19T20:37:11.724Z,-0.97
2023-12-19T20:40:15.002Z,-1.05
2023-12-19T20:43:17.652Z,-0.95
2023-12-19T20:46:22.043Z,-1.02
2023-12-19T20:49:27.510Z,-0.98
2023-12-19T20:52:33.056Z,-0.96
2023-12-19T20:55:37.685Z,-1.00
2023-12-19T20:58:41.568Z,-0.91
2023-12-19T21:01:46.524Z,-0.95
2023-12-19T21:04:50.396Z,-0.83
2023-12-19T21:07:53.055Z,-0.96
2023-12-19T21:10:55.876Z,-1.17
2023-12-19T21:13:58.304Z,-1.29
2023-12-19T21:17:07.009Z,-1.10
2023-12-19T21:20:12.901Z,-1.08
2023-12-19T21:23:15.782Z,-1.16
2023-12-19T21:26:18.240Z,-1.12
2023-12-19T21:29:21.326Z,-1.17
2023-12-19T21:32:23.808Z,-1.19
2023-12-19T21:35:26.664Z,-1.29
2023-12-19T21:38:29.085Z,-1.41
2023-12-19T21:41:31.759Z,-1.27
2023-12-19T21:44:34.177Z,-1.42
2023-12-19T21:47:37.134Z,-1.55
2023-12-19T21:50:39.677Z,-1.43
2023-12-19T21:53:44.559Z,-1.43
2023-12-19T21:56:47.206Z,-1.70
2023-12-19T21:59:50.183Z,-1.51
2023-12-19T22:02:52.582Z,-1.39
2023-12-19T22:05:55.312Z,-1.40
2023-12-19T22:08:57.757Z,-1.26
2023-12-19T22:12:01.194Z,-1.28
2023-12-19T22:15:05.244Z,-1.37
2023-12-19T22:18:08.051Z,-1.43
2023-12-19T22:21:23.489Z,-1.45
2023-12-19T22:24:26.982Z,-1.47
2023-12-19T22:27:29.281Z,-1.40
2023-12-19T22:30:32.497Z,-1.49
2023-12-19T22:33:37.082Z,-1.55
2023-12-19T22:36:40.145Z,-1.62
2023-12-19T22:39:42.503Z,-1.51
2023-12-19T22:42:45.867Z,-1.57
2023-12-19T22:45:48.479Z,-1.54
2023-12-19T22:48:51.603Z,-1.62
2023-12-19T22:51:54.060Z,-1.70
2023-12-19T22:54:56.903Z,-1.71
2023-12-19T22:57:59.268Z,-1.66
2023-12-19T23:01:02.356Z,-1.84
2023-12-19T23:04:04.869Z,-1.80
2023-12-19T23:07:08.421Z,-1.62
2023-12-19T23:10:14.377Z,-1.56
2023-12-19T23:13:17.333Z,-1.58
2023-12-19T23:16:19.804Z,-1.45
2023-12-19T23:19:22.586Z,-1.43
2023-12-19T23:22:25.367Z,-1.72
2023-12-19T23:25:28.038Z,-1.64
2023-12-19T23:28:31.521Z,-1.66
2023-12-19T23:31:41.282Z,-1.68
2023-12-19T23:34:44.941Z,-1.59
2023-12-19T23:37:50.095Z,-1.63
2023-12-19T23:40:52.486Z,-1.70
2023-12-19T23:43:55.076Z,-1.59
2023-12-19T23:46:57.582Z,-1.47
2023-12-19T23:50:00.496Z,-1.33
2023-12-19T23:53:03.150Z,-1.41
2023-12-19T23:56:06.158Z,-1.24
2023-12-19T23:59:10.863Z,-1.25
